createdAt,value
2022-10-21T00:01:08.573Z,22.20
2022-10-21T00:03:38.028Z,22.25
2022-10-21T00:06:06.730Z,22.29
2022-10-21T00:08:35.446Z,22.32
2022-10-21T00:11:06.375Z,22.34
2022-10-21T00:13:36.683Z,22.38
2022-10-21T00:16:12.432Z,22.40
2022-10-21T00:18:42.905Z,22.43
2022-10-21T00:21:14.586Z,22.47
2022-10-21T00:23:43.480Z,22.51
2022-10-21T00:26:13.513Z,22.56
2022-10-21T00:28:42.284Z,22.60
2022-10-21T00:31:13.197Z,22.63
2022-10-21T00:33:41.762Z,22.68
2022-10-21T00:36:16.071Z,22.73
2022-10-21T00:38:46.237Z,22.76
2022-10-21T00:41:16.546Z,22.81
2022-10-21T00:43:57.166Z,22.86
2022-10-21T00:47:05.700Z,22.92
2022-10-21T00:49:40.934Z,22.95
2022-10-21T00:52:22.878Z,23.01
2022-10-21T00:54:55.968Z,23.05
2022-10-21T00:57:26.602Z,23.10
2022-10-21T01:00:01.882Z,23.15
2022-10-21T01:02:31.238Z,23.20
2022-10-21T01:05:03.303Z,23.25
2022-10-21T01:07:32.145Z,23.32
2022-10-21T01:10:00.436Z,23.39
2022-10-21T01:12:46.591Z,23.46
2022-10-21T01:15:36.516Z,23.51
2022-10-21T01:18:42.937Z,23.59
2022-10-21T01:21:21.976Z,23.64
2022-10-21T01:24:27.551Z,23.72
2022-10-21T01:27:22.874Z,23.81
2022-10-21T01:30:07.177Z,23.89
2022-10-21T01:32:56.855Z,23.98
2022-10-21T01:35:50.846Z,24.06
2022-10-21T01:38:37.587Z,24.13
2022-10-21T01:41:20.762Z,24.19
2022-10-21T01:44:04.059Z,24.25
2022-10-21T01:46:56.863Z,24.35
2022-10-21T01:49:38.264Z,24.41
2022-10-21T01:52:08.602Z,24.45
2022-10-21T01:54:45.741Z,24.51
2022-10-21T01:57:18.203Z,24.55
2022-10-21T01:59:48.425Z,24.61
2022-10-21T02:02:18.661Z,24.68
2022-10-21T02:04:50.914Z,24.74
2022-10-21T02:07:19.392Z,24.79
2022-10-21T02:09:47.671Z,24.84
2022-10-21T02:12:17.771Z,24.88
2022-10-21T02:14:50.793Z,24.91
2022-10-21T02:17:22.707Z,24.98
2022-10-21T02:19:51.479Z,25.04
2022-10-21T02:22:23.794Z,25.09
2022-10-21T02:25:02.409Z,25.14
2022-10-21T02:27:30.864Z,25.21
2022-10-21T02:30:01.940Z,25.26
2022-10-21T02:32:39.292Z,25.31
2022-10-21T02:35:35.675Z,25.36
2022-10-21T02:38:31.409Z,25.41
2022-10-21T02:41:06.857Z,25.49
2022-10-21T02:43:41.090Z,25.53
2022-10-21T02:46:13.783Z,25.57
2022-10-21T02:48:46.363Z,25.61
2022-10-21T02:51:16.198Z,25.66
2022-10-21T02:53:45.067Z,25.73
2022-10-21T02:56:13.408Z,25.76
2022-10-21T02:58:41.749Z,25.84
2022-10-21T03:01:10.207Z,25.90
2022-10-21T03:03:38.564Z,25.95
2022-10-21T03:06:06.988Z,26.01
2022-10-21T03:08:35.484Z,26.07
2022-10-21T03:11:03.816Z,26.11
2022-10-21T03:13:32.114Z,26.18
2022-10-21T03:16:00.565Z,26.22
2022-10-21T03:18:28.883Z,26.25
2022-10-21T03:20:57.232Z,26.29
2022-10-21T03:23:25.546Z,26.35
2022-10-21T03:25:54.042Z,26.38
2022-10-21T03:28:22.474Z,26.43
2022-10-21T03:30:50.780Z,26.47
2022-10-21T03:33:19.261Z,26.54
2022-10-21T03:35:47.585Z,26.59
2022-10-21T03:38:16.041Z,26.64
2022-10-21T03:40:44.393Z,26.68
2022-10-21T03:43:12.722Z,26.75
2022-10-21T03:45:41.092Z,26.79
2022-10-21T03:48:09.456Z,26.82
2022-10-21T03:50:37.780Z,26.87
2022-10-21T03:53:13.802Z,26.91
2022-10-21T03:55:47.364Z,26.99
2022-10-21T03:58:15.686Z,27.04
2022-10-21T04:00:44.002Z,27.10
2022-10-21T04:03:12.395Z,27.15
2022-10-21T04:05:40.735Z,27.22
2022-10-21T04:08:09.103Z,27.24
2022-10-21T04:10:38.305Z,27.28
2022-10-21T04:13:06.669Z,27.32
2022-10-21T04:15:37.884Z,27.38
2022-10-21T04:18:07.386Z,27.45
2022-10-21T04:20:36.020Z,27.52
2022-10-21T04:23:04.383Z,27.59
2022-10-21T04:25:32.749Z,27.65
2022-10-21T04:28:01.255Z,27.72
2022-10-21T04:30:29.594Z,27.77
2022-10-21T04:32:57.931Z,27.82
2022-10-21T04:35:26.224Z,27.88
2022-10-21T04:37:54.751Z,27.92
2022-10-21T04:40:23.532Z,27.95
2022-10-21T04:42:51.965Z,27.99
2022-10-21T04:45:20.336Z,28.04
2022-10-21T04:47:48.654Z,28.04
2022-10-21T04:50:17.089Z,28.09
2022-10-21T04:52:45.419Z,28.12
2022-10-21T04:55:14.049Z,28.16
2022-10-21T04:57:43.699Z,28.23
2022-10-21T05:00:12.823Z,28.23
2022-10-21T05:02:41.476Z,28.23
2022-10-21T05:05:10.519Z,28.25
2022-10-21T05:07:38.985Z,28.27
2022-10-21T05:10:07.620Z,28.33
2022-10-21T05:15:04.339Z,28.44
2022-10-21T05:17:33.362Z,28.52
2022-10-21T05:20:01.706Z,28.63
2022-10-21T05:22:30.058Z,28.73
2022-10-21T05:24:58.453Z,28.81
2022-10-21T05:27:26.817Z,28.92
2022-10-21T05:29:55.300Z,28.99
2022-10-21T05:32:23.699Z,29.05
2022-10-21T05:34:52.077Z,29.07
2022-10-21T05:37:20.444Z,29.11
2022-10-21T05:39:48.739Z,29.15
2022-10-21T05:42:17.470Z,29.22
2022-10-21T05:44:45.763Z,29.28
2022-10-21T05:47:14.038Z,29.34
2022-10-21T05:49:42.373Z,29.38
2022-10-21T05:52:10.777Z,29.41
2022-10-21T05:54:39.103Z,29.47
2022-10-21T05:57:07.503Z,29.46
2022-10-21T05:59:35.841Z,29.47
2022-10-21T06:02:04.222Z,29.50
2022-10-21T06:04:36.411Z,29.52
2022-10-21T06:07:07.528Z,29.54
2022-10-21T06:09:35.932Z,29.57
2022-10-21T06:12:04.296Z,29.54
2022-10-21T06:14:32.661Z,29.48
2022-10-21T06:17:00.974Z,29.43
2022-10-21T06:19:31.776Z,29.38
2022-10-21T06:22:00.400Z,29.31
2022-10-21T06:24:28.744Z,29.33
2022-10-21T06:26:57.308Z,29.31
2022-10-21T06:29:26.164Z,29.24
2022-10-21T06:31:54.609Z,29.21
2022-10-21T06:34:23.425Z,29.16
2022-10-21T06:36:51.785Z,29.16
2022-10-21T06:39:20.142Z,29.22
2022-10-21T06:41:48.461Z,29.28
2022-10-21T06:44:16.807Z,29.32
2022-10-21T06:46:45.291Z,29.38
2022-10-21T06:49:13.662Z,29.43
2022-10-21T06:51:42.038Z,29.47
2022-10-21T06:54:10.431Z,29.51
2022-10-21T06:56:40.554Z,29.56
2022-10-21T06:59:08.898Z,29.58
2022-10-21T07:01:55.202Z,29.60
2022-10-21T07:04:26.066Z,29.60
2022-10-21T07:06:54.453Z,29.60
2022-10-21T07:09:23.049Z,29.58
2022-10-21T07:11:51.520Z,29.51
2022-10-21T07:14:20.031Z,29.47
2022-10-21T07:16:49.262Z,29.49
2022-10-21T07:19:17.626Z,29.56
2022-10-21T07:21:46.005Z,29.61
2022-10-21T07:24:16.281Z,29.61
2022-10-21T07:26:45.930Z,29.61
2022-10-21T07:29:14.337Z,29.60
2022-10-21T07:31:42.737Z,29.54
2022-10-21T07:34:13.682Z,29.55
2022-10-21T07:36:44.974Z,29.59
2022-10-21T07:39:17.508Z,29.65
2022-10-21T07:41:49.158Z,29.67
2022-10-21T07:44:18.771Z,29.66
2022-10-21T07:46:48.455Z,29.66
2022-10-21T07:49:18.495Z,29.65
2022-10-21T07:51:47.853Z,29.66
2022-10-21T07:54:16.454Z,29.71
2022-10-21T07:56:48.186Z,29.76
2022-10-21T07:59:19.270Z,29.82
2022-10-21T08:01:51.698Z,29.83
2022-10-21T08:04:22.639Z,29.83
2022-10-21T08:06:51.303Z,29.82
2022-10-21T08:09:19.818Z,29.82
2022-10-21T08:11:48.226Z,29.82
2022-10-21T08:14:17.341Z,29.80
2022-10-21T08:16:46.305Z,29.76
2022-10-21T08:19:30.470Z,29.72
2022-10-21T08:22:00.223Z,29.68
2022-10-21T08:24:29.463Z,29.65
2022-10-21T08:26:57.889Z,29.63
2022-10-21T08:29:26.561Z,29.62
2022-10-21T08:31:54.929Z,29.61
2022-10-21T08:34:23.404Z,29.57
2022-10-21T08:36:51.721Z,29.55
2022-10-21T08:39:25.901Z,29.53
2022-10-21T08:42:07.346Z,29.52
2022-10-21T08:44:56.358Z,29.53
2022-10-21T08:47:34.251Z,29.50
2022-10-21T08:50:19.867Z,29.49
2022-10-21T08:52:53.214Z,29.48
2022-10-21T08:55:25.327Z,29.44
2022-10-21T08:57:56.738Z,29.41
2022-10-21T09:00:30.259Z,29.36
2022-10-21T09:03:27.568Z,29.33
2022-10-21T09:06:12.917Z,29.27
2022-10-21T09:08:51.425Z,29.21
2022-10-21T09:11:27.873Z,29.14
2022-10-21T09:14:11.183Z,29.08
2022-10-21T09:17:11.149Z,29.01
2022-10-21T09:20:24.438Z,28.95
2022-10-21T09:23:23.153Z,28.87
2022-10-21T09:25:57.429Z,28.81
2022-10-21T09:28:27.601Z,28.76
2022-10-21T09:30:57.027Z,28.71
2022-10-21T09:33:35.523Z,28.67
2022-10-21T09:36:06.697Z,28.62
2022-10-21T09:38:45.945Z,28.61
2022-10-21T09:41:19.377Z,28.58
2022-10-21T09:43:50.212Z,28.54
2022-10-21T09:46:19.771Z,28.50
2022-10-21T09:51:46.415Z,28.38
2022-10-21T09:54:28.736Z,28.31
2022-10-21T09:58:01.634Z,28.22
2022-10-21T10:00:48.519Z,28.13
2022-10-21T10:03:42.317Z,28.09
2022-10-21T10:06:11.162Z,27.99
2022-10-21T10:08:48.232Z,27.95
2022-10-21T10:11:20.154Z,27.89
2022-10-21T10:13:53.204Z,27.84
2022-10-21T10:16:32.737Z,27.78
2022-10-21T10:19:25.220Z,27.75
2022-10-21T10:22:18.269Z,27.70
2022-10-21T10:24:46.840Z,27.63
2022-10-21T10:27:27.589Z,27.58
2022-10-21T10:30:00.813Z,27.53
2022-10-21T10:32:35.450Z,27.48
2022-10-21T10:35:10.153Z,27.44
2022-10-21T10:40:23.595Z,27.33
2022-10-21T10:43:01.990Z,27.27
2022-10-21T10:45:30.833Z,27.22
2022-10-21T10:48:07.846Z,27.16
2022-10-21T10:50:39.167Z,27.12
2022-10-21T10:53:24.511Z,27.06
2022-10-21T10:56:17.104Z,27.02
2022-10-21T10:58:54.382Z,26.98
2022-10-21T11:01:31.903Z,26.94
2022-10-21T11:04:24.389Z,26.89
2022-10-21T11:07:04.353Z,26.82
2022-10-21T11:09:35.386Z,26.77
2022-10-21T11:12:13.837Z,26.72
2022-10-21T11:14:42.388Z,26.68
2022-10-21T11:17:14.364Z,26.65
2022-10-21T11:19:54.930Z,26.61
2022-10-21T11:22:34.779Z,26.58
2022-10-21T11:25:34.303Z,26.53
2022-10-21T11:28:31.583Z,26.51
2022-10-21T11:31:29.696Z,26.51
2022-10-21T11:34:36.336Z,26.46
2022-10-21T11:37:29.648Z,26.42
2022-10-21T11:40:14.086Z,26.40
2022-10-21T11:42:46.345Z,26.36
2022-10-21T11:45:35.997Z,26.34
2022-10-21T11:48:13.919Z,26.31
2022-10-21T11:51:06.404Z,26.28
2022-10-21T11:53:40.590Z,26.27
2022-10-21T11:56:39.510Z,26.26
2022-10-21T11:59:34.319Z,26.23
2022-10-21T12:02:02.676Z,26.22
2022-10-21T12:04:40.632Z,26.18
2022-10-21T12:07:23.907Z,26.15
2022-10-21T12:10:13.023Z,26.13
2022-10-21T12:12:48.712Z,26.10
2022-10-21T12:15:43.334Z,26.07
2022-10-21T12:18:18.753Z,26.05
2022-10-21T12:20:50.135Z,26.03
2022-10-21T12:23:22.968Z,26.02
2022-10-21T12:26:09.532Z,25.99
2022-10-21T12:29:04.613Z,25.96
2022-10-21T12:31:35.586Z,25.93
2022-10-21T12:34:04.878Z,25.90
2022-10-21T12:36:52.373Z,25.88
2022-10-21T12:39:36.210Z,25.86
2022-10-21T12:42:15.077Z,25.84
2022-10-21T12:44:51.788Z,25.83
2022-10-21T12:47:44.148Z,25.81
2022-10-21T12:50:18.193Z,25.80
2022-10-21T12:52:49.902Z,25.80
2022-10-21T12:55:28.212Z,25.77
2022-10-21T12:58:04.281Z,25.77
2022-10-21T13:00:32.662Z,25.75
2022-10-21T13:03:08.928Z,25.73
2022-10-21T13:05:40.048Z,25.72
2022-10-21T13:08:28.567Z,25.71
2022-10-21T13:11:08.362Z,25.70
2022-10-21T13:13:46.502Z,25.69
2022-10-21T13:16:20.589Z,25.69
2022-10-21T13:18:52.352Z,25.69
2022-10-21T13:21:40.256Z,25.70
2022-10-21T13:24:08.601Z,25.69
2022-10-21T13:26:49.831Z,25.69
2022-10-21T13:29:35.243Z,25.67
2022-10-21T13:32:15.721Z,25.67
2022-10-21T13:34:55.620Z,25.67
2022-10-21T13:37:41.229Z,25.68
2022-10-21T13:40:19.405Z,25.69
2022-10-21T13:43:15.236Z,25.69
2022-10-21T13:45:58.641Z,25.71
2022-10-21T13:48:27.245Z,25.71
2022-10-21T13:50:55.871Z,25.72
2022-10-21T13:53:30.291Z,25.72
2022-10-21T13:56:04.548Z,25.71
2022-10-21T13:58:39.999Z,25.72
2022-10-21T14:01:13.272Z,25.72
2022-10-21T14:03:43.161Z,25.71
2022-10-21T14:06:20.034Z,25.71
2022-10-21T14:08:49.583Z,25.70
2022-10-21T14:11:37.390Z,25.69
2022-10-21T14:14:10.537Z,25.68
2022-10-21T14:16:50.862Z,25.67
2022-10-21T14:19:24.373Z,25.66
2022-10-21T14:21:55.955Z,25.65
2022-10-21T14:24:26.953Z,25.64
2022-10-21T14:26:56.675Z,25.62
2022-10-21T14:29:31.803Z,25.60
2022-10-21T14:32:01.608Z,25.61
2022-10-21T14:34:32.797Z,25.62
2022-10-21T14:37:09.312Z,25.63
2022-10-21T14:39:40.850Z,25.63
2022-10-21T14:42:30.116Z,25.64
2022-10-21T14:45:05.793Z,25.66
2022-10-21T14:47:34.201Z,25.67
2022-10-21T14:50:02.831Z,25.67
2022-10-21T14:52:47.394Z,25.68
2022-10-21T14:55:18.601Z,25.68
2022-10-21T14:57:55.629Z,25.68
2022-10-21T15:00:35.679Z,25.69
2022-10-21T15:03:04.537Z,25.67
2022-10-21T15:05:42.949Z,25.66
2022-10-21T15:08:16.602Z,25.64
2022-10-21T15:10:45.165Z,25.64
2022-10-21T15:13:20.917Z,25.61
2022-10-21T15:15:54.016Z,25.58
2022-10-21T15:18:33.176Z,25.57
2022-10-21T15:21:04.232Z,25.53
2022-10-21T15:23:36.504Z,25.52
2022-10-21T15:26:13.511Z,25.48
2022-10-21T15:28:42.906Z,25.46
2022-10-21T15:31:31.378Z,25.43
2022-10-21T15:33:59.723Z,25.41
2022-10-21T15:36:28.115Z,25.39
2022-10-21T15:38:56.439Z,25.37
2022-10-21T15:41:30.552Z,25.35
2022-10-21T15:44:05.248Z,25.32
2022-10-21T15:46:36.485Z,25.29
2022-10-21T15:49:16.833Z,25.25
2022-10-21T15:51:45.326Z,25.22
2022-10-21T15:54:14.301Z,25.21
2022-10-21T15:56:47.538Z,25.18
2022-10-21T15:59:25.781Z,25.16
2022-10-21T16:01:56.286Z,25.15
2022-10-21T16:04:25.798Z,25.13
2022-10-21T16:06:57.241Z,25.12
2022-10-21T16:09:29.021Z,25.09
2022-10-21T16:12:01.081Z,25.06
2022-10-21T16:14:31.277Z,25.03
2022-10-21T16:17:00.591Z,25.01
2022-10-21T16:19:29.756Z,24.99
2022-10-21T16:21:58.498Z,24.97
2022-10-21T16:24:26.921Z,24.93
2022-10-21T16:26:55.299Z,24.93
2022-10-21T16:29:25.892Z,24.90
2022-10-21T16:31:54.482Z,24.89
2022-10-21T16:34:22.878Z,24.88
2022-10-21T16:36:51.301Z,24.87
2022-10-21T16:39:26.401Z,24.87
2022-10-21T16:41:54.965Z,24.86
2022-10-21T16:44:23.449Z,24.85
2022-10-21T16:46:56.492Z,24.85
2022-10-21T16:49:27.895Z,24.82
2022-10-21T16:51:58.381Z,24.80
2022-10-21T16:54:26.681Z,24.78
2022-10-21T16:56:56.089Z,24.78
2022-10-21T16:59:24.960Z,24.76
2022-10-21T17:01:53.304Z,24.76
2022-10-21T17:04:21.636Z,24.75
2022-10-21T17:06:50.098Z,24.74
2022-10-21T17:09:20.353Z,24.73
2022-10-21T17:11:48.706Z,24.72
2022-10-21T17:14:21.010Z,24.70
2022-10-21T17:16:49.393Z,24.70
2022-10-21T17:19:17.768Z,24.69
2022-10-21T17:21:47.571Z,24.66
2022-10-21T17:24:22.511Z,24.65
2022-10-21T17:26:51.065Z,24.64
2022-10-21T17:29:19.379Z,24.62
2022-10-21T17:31:47.723Z,24.60
2022-10-21T17:34:29.033Z,24.58
2022-10-21T17:36:57.882Z,24.57
2022-10-21T17:39:27.048Z,24.57
2022-10-21T17:41:55.853Z,24.56
2022-10-21T17:44:24.197Z,24.59
2022-10-21T17:46:55.425Z,24.59
2022-10-21T17:49:25.453Z,24.62
2022-10-21T17:51:53.896Z,24.64
2022-10-21T17:54:26.589Z,24.67
2022-10-21T17:56:58.299Z,24.66
2022-10-21T17:59:27.683Z,24.67
2022-10-21T18:01:56.068Z,24.68
2022-10-21T18:04:24.621Z,24.69
2022-10-21T18:06:54.349Z,24.70
2022-10-21T18:09:22.804Z,24.70
2022-10-21T18:11:51.284Z,24.69
2022-10-21T18:14:19.690Z,24.68
2022-10-21T18:16:47.990Z,24.67
2022-10-21T18:19:17.315Z,24.63
2022-10-21T18:21:46.059Z,24.59
2022-10-21T18:24:14.464Z,24.58
2022-10-21T18:26:42.810Z,24.56
2022-10-21T18:29:11.246Z,24.55
2022-10-21T18:31:40.286Z,24.52
2022-10-21T18:34:10.295Z,24.51
2022-10-21T18:36:39.263Z,24.49
2022-10-21T18:39:08.304Z,24.46
2022-10-21T18:41:37.653Z,24.45
2022-10-21T18:44:11.623Z,24.45
2022-10-21T18:46:42.184Z,24.44
2022-10-21T18:49:13.876Z,24.47
2022-10-21T18:51:42.325Z,24.48
2022-10-21T18:54:10.663Z,24.50
2022-10-21T18:56:39.066Z,24.52
2022-10-21T18:59:07.431Z,24.53
2022-10-21T19:01:35.839Z,24.54
2022-10-21T19:04:04.314Z,24.55
2022-10-21T19:06:42.068Z,24.55
2022-10-21T19:09:18.100Z,24.57
2022-10-21T19:11:47.922Z,24.59
2022-10-21T19:14:17.388Z,24.60
2022-10-21T19:16:47.420Z,24.62
2022-10-21T19:19:17.491Z,24.62
2022-10-21T19:21:45.891Z,24.63
2022-10-21T19:24:14.361Z,24.63
2022-10-21T19:26:45.751Z,24.61
2022-10-21T19:29:17.755Z,24.59
2022-10-21T19:34:23.357Z,24.56
2022-10-21T19:36:51.793Z,24.54
2022-10-21T19:39:20.716Z,24.53
2022-10-21T19:41:49.509Z,24.49
2022-10-21T19:44:18.335Z,24.49
2022-10-21T19:46:47.007Z,24.46
2022-10-21T19:49:16.112Z,24.45
2022-10-21T19:51:44.407Z,24.43
2022-10-21T19:54:14.638Z,24.40
2022-10-21T19:56:43.446Z,24.40
2022-10-21T19:59:12.366Z,24.38
2022-10-21T20:01:40.909Z,24.39
2022-10-21T20:04:09.403Z,24.39
2022-10-21T20:06:39.555Z,24.39
2022-10-21T20:09:13.928Z,24.41
2022-10-21T20:11:43.293Z,24.41
2022-10-21T20:14:14.473Z,24.42
2022-10-21T20:16:45.248Z,24.43
2022-10-21T20:19:13.690Z,24.43
2022-10-21T20:21:42.965Z,24.45
2022-10-21T20:24:15.076Z,24.46
2022-10-21T20:26:45.292Z,24.48
2022-10-21T20:29:16.342Z,24.50
2022-10-21T20:31:44.775Z,24.51
2022-10-21T20:34:16.298Z,24.52
2022-10-21T20:36:45.993Z,24.53
2022-10-21T20:39:14.615Z,24.54
2022-10-21T20:41:43.069Z,24.55
2022-10-21T20:44:20.124Z,24.54
2022-10-21T20:46:48.584Z,24.54
2022-10-21T20:49:16.997Z,24.54
2022-10-21T20:51:45.442Z,24.54
2022-10-21T20:54:18.152Z,24.54
2022-10-21T20:56:46.807Z,24.53
2022-10-21T20:59:16.758Z,24.53
2022-10-21T21:01:47.800Z,24.51
2022-10-21T21:04:18.315Z,24.50
2022-10-21T21:06:48.995Z,24.49
2022-10-21T21:09:38.059Z,24.46
2022-10-21T21:12:08.182Z,24.44
2022-10-21T21:14:36.589Z,24.44
2022-10-21T21:17:06.013Z,24.41
2022-10-21T21:19:34.866Z,24.40
2022-10-21T21:22:04.750Z,24.37
2022-10-21T21:24:33.509Z,24.35
2022-10-21T21:27:01.959Z,24.36
2022-10-21T21:29:30.371Z,24.33
2022-10-21T21:31:58.666Z,24.34
2022-10-21T21:34:27.051Z,24.34
2022-10-21T21:36:55.374Z,24.34
2022-10-21T21:39:23.788Z,24.36
2022-10-21T21:41:52.273Z,24.37
2022-10-21T21:44:20.581Z,24.37
2022-10-21T21:46:48.910Z,24.37
2022-10-21T21:49:17.253Z,24.37
2022-10-21T21:51:45.567Z,24.38
2022-10-21T21:54:13.944Z,24.37
2022-10-21T21:56:42.306Z,24.39
2022-10-21T21:59:10.793Z,24.39
2022-10-21T22:01:39.153Z,24.39
2022-10-21T22:04:07.938Z,24.40
2022-10-21T22:06:39.360Z,24.41
2022-10-21T22:09:12.896Z,24.40
2022-10-21T22:11:41.382Z,24.40
2022-10-21T22:14:10.439Z,24.39
2022-10-21T22:16:38.903Z,24.39
2022-10-21T22:19:07.307Z,24.39
2022-10-21T22:21:35.681Z,24.39
2022-10-21T22:24:04.067Z,24.39
2022-10-21T22:26:32.421Z,24.39
2022-10-21T22:29:00.723Z,24.39
2022-10-21T22:31:30.707Z,24.40
2022-10-21T22:34:00.746Z,24.41
2022-10-21T22:36:29.853Z,24.41
2022-10-21T22:38:58.421Z,24.42
2022-10-21T22:41:27.613Z,24.41
2022-10-21T22:43:56.317Z,24.41
2022-10-21T22:46:39.923Z,24.41
2022-10-21T22:49:08.457Z,24.42
2022-10-21T22:51:36.781Z,24.43
2022-10-21T22:54:11.625Z,24.42
2022-10-21T22:56:43.681Z,24.43
2022-10-21T22:59:12.065Z,24.43
2022-10-21T23:01:40.451Z,24.42
2022-10-21T23:04:08.855Z,24.43
2022-10-21T23:06:37.329Z,24.42
2022-10-21T23:09:06.596Z,24.44
2022-10-21T23:11:35.794Z,24.45
2022-10-21T23:14:08.703Z,24.46
2022-10-21T23:16:38.051Z,24.47
2022-10-21T23:19:08.345Z,24.46
2022-10-21T23:21:37.736Z,24.47
2022-10-21T23:24:07.307Z,24.46
2022-10-21T23:26:36.748Z,24.46
2022-10-21T23:29:06.098Z,24.48
2022-10-21T23:31:34.513Z,24.47
2022-10-21T23:34:03.845Z,24.48
2022-10-21T23:36:32.309Z,24.47
2022-10-21T23:39:00.626Z,24.50
2022-10-21T23:41:29.258Z,24.53
2022-10-21T23:43:57.581Z,24.54
2022-10-21T23:48:59.138Z,24.58
2022-10-21T23:51:27.560Z,24.60
2022-10-21T23:53:55.963Z,24.63
2022-10-21T23:56:24.348Z,24.65
2022-10-21T23:58:53.704Z,24.68
